Share

Agadir, Morocco

9:25 PM WET on April 23, 2014 (GMT +0000)
Al-Massira (GMAD) Elev 243 ft | 30.33 °N, 9.40 °W | Change Station

Current weather conditions updated 25 minutes ago

Clear
Clear
63 °F
Feels Like 63 °F
N
6
Wind Variable Wind from SSW
Gusts mph
Sunrise 6:02 AM
Sunset 7:10 PM
Moon Waning Crescent

Tomorrow is forecast to be Much Warmer than today.

Pressure 30.09 in
Visibility -9999.0 miles
Clouds
Dew Point 57 °F
Humidity 82%
Rainfall 0.00 in
Snow Depth Not available.
UV Not available.
Pollen Not available.
Air Quality Not available.
Flu Activity Not available.
METAR GMAD 232100Z AUTO 20005KT 140V240 R28///// /// 17/14 Q1019

More Conditions Fewer Conditions

Pressure 30.09 in
Visibility -9999.0 miles
Clouds
Dew Point 57 °F
Humidity 82%
Rainfall 0.00 in
Snow Depth Not available.
UV Not available.
Pollen Not available.
Air Quality Not available.
Flu Activity Not available.
METAR GMAD 232100Z AUTO 20005KT 140V240 R28///// /// 17/14 Q1019

More Conditions Fewer Conditions

10-Day Weather Forecast

Almanac

Astronomy

Apr. 23, 2014 Rise Set
Actual Time 6:02 AM WET 7:10 PM WET
Civil Twilight 5:37 AM WET 7:35 PM WET
Nautical Twilight 5:08 AM WET 8:05 PM WET
Astronomical Twilight 4:37 AM WET 8:36 PM WET
Moon 1:58 AM WET 1:29 PM WET
Length of Visible Light 13h 58m
Length of Day
13h 08m
Tomorrow will be 1m 39s longer.
Waning Crescent, 32% of the Moon is Illuminated
Today
Waning Crescent
Apr 29
New
May 6
First Quarter
May 14
Full
May 21
Last Quarter

Today's Extremes

Country Highs Country Lows

Community

  • Stunning Sunrise
    Stunning Sunrise
  • spring flowers
    spring flowers
  • Earth Day Spectrum Ove' Blue
    Earth Day Spectrum Ove' Blue
  • BARN B&W
    BARN B&W
  • April Sunset
    April Sunset

WunderPhotos

Upload Photos

1,704,415 photos uploaded!

WunderBlogs® & News

Nearby

Snow Depth

Not available.

Coastal Water Temperatures

Place Temperature
No Stations Reporting

Earthquake Activity

City Distance Mag. Time & Date
No recent earthquake activity has been reported nearby.
Minimum magnitude displayed is 2.5.

Nearby Weather Stations

There are no personal weather stations in this area.

What do you think?

We're not finished. Please let us know what you like, what you don't like, and what you are still missing.